createdAt,value
2017-08-19T00:00:55.688Z,31.4
2017-08-19T00:01:57.352Z,31.0
2017-08-19T00:02:59.009Z,31.2
2017-08-19T00:04:00.664Z,31.4
2017-08-19T00:05:02.321Z,31.6
2017-08-19T00:06:03.976Z,31.3
2017-08-19T00:07:05.634Z,30.8
2017-08-19T00:08:07.321Z,30.9
2017-08-19T00:09:08.985Z,30.8
2017-08-19T00:10:10.638Z,30.6
2017-08-19T00:11:12.311Z,29.9
2017-08-19T00:12:13.963Z,30.4
2017-08-19T00:13:15.633Z,30.4
2017-08-19T00:14:17.293Z,30.3
2017-08-19T00:15:20.628Z,32.3
2017-08-19T00:16:22.287Z,33.0
2017-08-19T00:17:23.936Z,33.0
2017-08-19T00:18:25.597Z,31.9
2017-08-19T00:19:27.264Z,32.7
2017-08-19T00:20:28.915Z,31.8
2017-08-19T00:21:30.572Z,31.2
2017-08-19T00:22:32.229Z,31.2
2017-08-19T00:23:33.898Z,31.7
2017-08-19T00:24:35.551Z,32.0
2017-08-19T00:25:37.202Z,32.0
2017-08-19T00:26:38.870Z,31.4
2017-08-19T00:27:40.530Z,31.6
2017-08-19T00:28:42.190Z,31.4
2017-08-19T00:29:43.845Z,31.2
2017-08-19T00:30:45.515Z,31.4
2017-08-19T00:31:47.176Z,31.2
2017-08-19T00:32:48.837Z,30.5
2017-08-19T00:33:50.615Z,30.3
2017-08-19T00:34:52.267Z,30.3
2017-08-19T00:35:53.932Z,30.1
2017-08-19T00:36:55.600Z,31.2
2017-08-19T00:37:57.270Z,32.0
2017-08-19T00:38:58.929Z,32.0
2017-08-19T00:40:00.592Z,31.7
2017-08-19T00:41:02.247Z,31.7
2017-08-19T00:42:03.909Z,31.5
2017-08-19T00:43:05.573Z,32.6
2017-08-19T00:44:07.263Z,32.8
2017-08-19T00:45:08.894Z,32.5
2017-08-19T00:46:10.551Z,32.7
2017-08-19T00:47:12.211Z,32.9
2017-08-19T00:48:13.868Z,32.6
2017-08-19T00:49:15.572Z,32.9
2017-08-19T00:50:17.247Z,32.6
2017-08-19T00:51:18.900Z,32.8
2017-08-19T00:52:20.570Z,32.9
2017-08-19T00:53:22.234Z,33.0
2017-08-19T00:54:23.939Z,33.0
2017-08-19T00:55:25.586Z,33.3
2017-08-19T00:56:27.241Z,33.2
2017-08-19T00:57:28.899Z,33.4
2017-08-19T00:58:30.563Z,33.1
2017-08-19T00:59:32.223Z,33.6
2017-08-19T01:00:33.878Z,34.6
2017-08-19T01:01:35.533Z,34.3
2017-08-19T01:02:37.199Z,34.5
2017-08-19T01:03:38.862Z,35.3
2017-08-19T01:04:40.516Z,35.4
2017-08-19T01:05:42.171Z,35.5
2017-08-19T01:06:43.830Z,35.4
2017-08-19T01:07:45.488Z,34.6
2017-08-19T01:08:47.145Z,34.9
2017-08-19T01:09:48.835Z,35.5
2017-08-19T01:10:50.497Z,36.0
2017-08-19T01:11:52.226Z,36.0
2017-08-19T01:12:53.882Z,36.6
2017-08-19T01:13:55.543Z,36.6
2017-08-19T01:14:57.198Z,36.4
2017-08-19T01:15:58.863Z,36.0
2017-08-19T01:17:00.524Z,36.7
2017-08-19T01:18:02.184Z,36.8
2017-08-19T01:19:03.845Z,36.8
2017-08-19T01:20:05.508Z,36.6
2017-08-19T01:21:07.163Z,36.6
2017-08-19T01:22:08.824Z,36.5
2017-08-19T01:23:10.486Z,35.7
2017-08-19T01:24:12.144Z,35.6
2017-08-19T01:25:13.795Z,35.4
2017-08-19T01:26:15.449Z,34.4
2017-08-19T01:27:17.117Z,34.7
2017-08-19T01:28:18.778Z,34.4
2017-08-19T01:29:20.433Z,35.3
2017-08-19T01:30:22.083Z,35.4
2017-08-19T01:31:23.752Z,36.1
2017-08-19T01:32:25.402Z,36.4
2017-08-19T01:33:27.062Z,35.7
2017-08-19T01:34:28.722Z,35.9
2017-08-19T01:35:30.383Z,35.2
2017-08-19T01:36:32.046Z,35.6
2017-08-19T01:37:33.703Z,35.2
2017-08-19T01:38:35.359Z,35.4
2017-08-19T01:39:37.017Z,35.0
2017-08-19T01:40:38.673Z,35.1
2017-08-19T01:41:40.333Z,34.8
2017-08-19T01:42:41.990Z,34.8
2017-08-19T01:43:43.650Z,34.5
2017-08-19T01:44:45.313Z,35.3
2017-08-19T01:45:46.990Z,35.3
2017-08-19T01:46:48.645Z,35.7
2017-08-19T01:47:50.316Z,35.2
2017-08-19T01:48:51.974Z,35.3
2017-08-19T01:49:53.636Z,35.5
2017-08-19T01:50:55.288Z,35.5
2017-08-19T01:51:56.940Z,35.5
2017-08-19T01:52:58.604Z,35.7
2017-08-19T01:54:00.262Z,36.1
2017-08-19T01:55:01.923Z,36.4
2017-08-19T01:56:03.587Z,36.2
2017-08-19T01:57:05.242Z,36.3
2017-08-19T01:58:06.901Z,35.7
2017-08-19T01:59:08.552Z,36.3
2017-08-19T02:00:10.212Z,36.0
2017-08-19T02:01:11.879Z,35.5
2017-08-19T02:02:13.539Z,35.8
2017-08-19T02:03:15.205Z,34.9
2017-08-19T02:04:16.876Z,35.3
2017-08-19T02:05:18.524Z,35.4
2017-08-19T02:06:20.183Z,35.1
2017-08-19T02:07:21.843Z,34.8
2017-08-19T02:08:23.497Z,34.8
2017-08-19T02:09:25.158Z,34.7
2017-08-19T02:10:26.816Z,34.5
2017-08-19T02:11:28.479Z,34.4
2017-08-19T02:12:30.182Z,34.4
2017-08-19T02:13:31.830Z,33.9
2017-08-19T02:14:33.490Z,33.8
2017-08-19T02:15:35.142Z,33.5
2017-08-19T02:16:36.792Z,33.3
2017-08-19T02:17:38.449Z,33.5
2017-08-19T02:18:40.115Z,33.0
2017-08-19T02:19:41.766Z,34.1
2017-08-19T02:20:43.419Z,34.8
2017-08-19T02:21:45.072Z,35.6
2017-08-19T02:22:46.742Z,35.5
2017-08-19T02:23:48.391Z,35.5
2017-08-19T02:24:50.051Z,36.1
2017-08-19T02:25:51.715Z,35.7
2017-08-19T02:26:53.373Z,35.8
2017-08-19T02:27:55.039Z,35.5
2017-08-19T02:28:56.700Z,35.0
2017-08-19T02:29:58.353Z,35.6
2017-08-19T02:31:00.008Z,36.2
2017-08-19T02:32:01.667Z,36.3
2017-08-19T02:33:03.321Z,36.3
2017-08-19T02:34:04.977Z,35.6
2017-08-19T02:35:06.634Z,35.9
2017-08-19T02:36:08.293Z,35.8
2017-08-19T02:37:09.948Z,35.8
2017-08-19T02:38:11.604Z,35.7
2017-08-19T02:39:13.267Z,36.1
2017-08-19T02:40:14.926Z,35.9
2017-08-19T02:41:16.582Z,36.1
2017-08-19T02:42:18.237Z,35.7
2017-08-19T02:43:19.889Z,36.1
2017-08-19T02:44:21.551Z,35.6
2017-08-19T02:45:23.205Z,35.8
2017-08-19T02:46:24.861Z,35.7
2017-08-19T02:47:26.524Z,35.7
2017-08-19T02:48:28.175Z,35.8
2017-08-19T02:49:29.831Z,35.6
2017-08-19T02:50:31.487Z,35.6
2017-08-19T02:51:33.149Z,35.9
2017-08-19T02:52:34.811Z,35.6
2017-08-19T02:53:36.471Z,35.4
2017-08-19T02:54:38.126Z,35.7
2017-08-19T02:55:39.791Z,35.2
2017-08-19T02:56:41.449Z,34.5
2017-08-19T02:57:43.113Z,34.0
2017-08-19T02:58:44.765Z,33.2
2017-08-19T02:59:46.425Z,32.6
2017-08-19T03:00:48.076Z,31.8
2017-08-19T03:01:49.810Z,31.9
2017-08-19T03:02:51.480Z,31.4
2017-08-19T03:03:53.138Z,30.9
2017-08-19T03:04:54.800Z,30.6
2017-08-19T03:05:56.462Z,30.3
2017-08-19T03:06:58.128Z,30.2
2017-08-19T03:07:59.784Z,30.5
2017-08-19T03:09:01.447Z,30.2
2017-08-19T03:10:03.093Z,30.3
2017-08-19T03:11:04.753Z,30.4
2017-08-19T03:12:06.415Z,30.2
2017-08-19T03:13:08.077Z,29.1
2017-08-19T03:14:09.733Z,28.9
2017-08-19T03:15:11.391Z,28.0
2017-08-19T03:16:13.051Z,28.4
2017-08-19T03:17:14.698Z,28.6
2017-08-19T03:18:16.370Z,27.5
2017-08-19T03:19:18.022Z,27.3
2017-08-19T03:20:19.680Z,27.5
2017-08-19T03:21:21.336Z,27.3
2017-08-19T03:22:22.995Z,27.1
2017-08-19T03:23:24.657Z,27.0
2017-08-19T03:24:26.313Z,26.5
2017-08-19T03:25:27.972Z,25.5
2017-08-19T03:26:29.633Z,24.8
2017-08-19T03:27:31.300Z,24.8
2017-08-19T03:28:32.963Z,25.5
2017-08-19T03:29:34.629Z,24.8
2017-08-19T03:30:36.287Z,24.4
2017-08-19T03:31:37.952Z,24.1
2017-08-19T03:32:39.604Z,24.6
2017-08-19T03:33:41.256Z,24.4
2017-08-19T03:34:42.928Z,23.9
2017-08-19T03:35:44.589Z,23.0
2017-08-19T03:36:46.249Z,23.1
2017-08-19T03:37:47.904Z,23.1
2017-08-19T03:38:49.563Z,23.2
2017-08-19T03:39:51.221Z,23.1
2017-08-19T03:40:52.873Z,23.4
2017-08-19T03:41:54.541Z,23.2
2017-08-19T03:42:56.205Z,22.7
2017-08-19T03:43:57.865Z,22.4
2017-08-19T03:44:59.514Z,22.7
2017-08-19T03:46:01.176Z,22.3
2017-08-19T03:47:02.828Z,21.5
2017-08-19T03:48:04.485Z,22.2
2017-08-19T03:49:06.201Z,22.2
2017-08-19T03:50:07.859Z,22.2
2017-08-19T03:51:09.519Z,20.7
2017-08-19T03:52:11.178Z,20.8
2017-08-19T03:53:12.834Z,20.4
2017-08-19T03:54:14.520Z,19.6
2017-08-19T03:55:16.150Z,18.9
2017-08-19T03:56:17.817Z,18.5
2017-08-19T03:57:19.481Z,18.4
2017-08-19T03:58:21.131Z,18.4
2017-08-19T03:59:22.792Z,18.3
2017-08-19T04:00:24.448Z,18.9
2017-08-19T04:01:26.116Z,18.7
2017-08-19T04:02:27.773Z,19.5
2017-08-19T04:03:29.433Z,19.5
2017-08-19T04:04:31.115Z,19.6
2017-08-19T04:05:32.779Z,19.0
2017-08-19T04:06:34.440Z,18.7
2017-08-19T04:07:36.102Z,18.6
2017-08-19T04:08:37.758Z,18.4
2017-08-19T04:09:39.416Z,18.1
2017-08-19T04:10:41.071Z,18.6
2017-08-19T04:11:42.732Z,18.6
2017-08-19T04:12:44.387Z,18.8
2017-08-19T04:13:46.063Z,18.6
2017-08-19T04:14:47.730Z,18.7
2017-08-19T04:15:49.388Z,18.7
2017-08-19T04:16:51.055Z,18.2
2017-08-19T04:17:52.715Z,18.3
2017-08-19T04:18:54.377Z,18.3
2017-08-19T04:19:56.033Z,18.5
2017-08-19T04:20:57.697Z,18.4
2017-08-19T04:21:59.357Z,18.6
2017-08-19T04:23:01.014Z,18.4
2017-08-19T04:24:02.681Z,18.5
2017-08-19T04:25:04.339Z,18.6
2017-08-19T04:26:06.051Z,18.5
2017-08-19T04:27:07.718Z,18.7
2017-08-19T04:28:09.376Z,18.4
2017-08-19T04:29:11.029Z,18.4
2017-08-19T04:30:12.693Z,18.4
2017-08-19T04:31:14.354Z,18.5
2017-08-19T04:32:16.015Z,18.4
2017-08-19T04:33:17.678Z,18.3
2017-08-19T04:34:19.331Z,18.7
2017-08-19T04:35:20.992Z,19.5
2017-08-19T04:36:22.652Z,18.7
2017-08-19T04:37:24.314Z,18.1
2017-08-19T04:38:25.981Z,19.1
2017-08-19T04:39:27.645Z,18.5
2017-08-19T04:40:29.302Z,18.6
2017-08-19T04:41:30.963Z,18.4
2017-08-19T04:42:32.643Z,20.1
2017-08-19T04:43:34.296Z,18.8
2017-08-19T04:44:35.950Z,19.3
2017-08-19T04:45:37.612Z,19.5
2017-08-19T04:46:39.277Z,18.4
2017-08-19T04:47:40.942Z,18.5
2017-08-19T04:48:42.604Z,18.7
2017-08-19T04:49:44.272Z,19.5
2017-08-19T04:50:45.945Z,23.0
2017-08-19T04:51:47.593Z,19.4
2017-08-19T04:52:49.253Z,20.5
2017-08-19T04:53:50.920Z,20.3
2017-08-19T04:54:52.577Z,19.1
2017-08-19T04:55:54.247Z,18.9
2017-08-19T04:56:55.904Z,20.4
2017-08-19T04:57:57.566Z,22.7
2017-08-19T04:58:59.232Z,20.4
2017-08-19T05:00:00.895Z,19.4
2017-08-19T05:01:02.566Z,19.5
2017-08-19T05:02:04.233Z,18.6
2017-08-19T05:03:05.897Z,20.9
2017-08-19T05:04:07.563Z,19.4
2017-08-19T05:05:09.230Z,22.0
2017-08-19T05:06:10.904Z,19.0
2017-08-19T05:07:12.563Z,21.2
2017-08-19T05:08:14.228Z,21.9
2017-08-19T05:09:15.890Z,25.4
2017-08-19T05:10:17.561Z,20.5
2017-08-19T05:11:19.222Z,22.7
2017-08-19T05:12:20.889Z,27.6
2017-08-19T05:13:22.547Z,21.4
2017-08-19T05:14:24.218Z,21.7
2017-08-19T05:15:25.887Z,26.3
2017-08-19T05:16:27.552Z,25.2
2017-08-19T05:17:29.216Z,21.4
2017-08-19T05:18:30.884Z,21.2
2017-08-19T05:19:32.550Z,23.3
2017-08-19T05:20:34.208Z,23.0
2017-08-19T05:21:35.870Z,22.3
2017-08-19T05:22:37.535Z,25.8
2017-08-19T05:23:39.198Z,20.1
2017-08-19T05:24:40.877Z,22.9
2017-08-19T05:25:42.563Z,22.3
2017-08-19T05:26:44.221Z,25.2
2017-08-19T05:27:45.892Z,25.3
2017-08-19T05:28:47.586Z,25.8
2017-08-19T05:29:49.262Z,26.1
2017-08-19T05:30:50.926Z,21.9
2017-08-19T05:31:52.599Z,22.3
2017-08-19T05:32:54.259Z,21.4
2017-08-19T05:33:55.931Z,23.4
2017-08-19T05:34:57.594Z,30.7
2017-08-19T05:35:59.256Z,25.2
2017-08-19T05:37:00.920Z,30.1
2017-08-19T05:38:02.597Z,21.1
2017-08-19T05:39:04.285Z,20.9
2017-08-19T05:40:05.943Z,22.4
2017-08-19T05:41:07.619Z,21.6
2017-08-19T05:42:09.281Z,21.9
2017-08-19T05:43:10.952Z,23.9
2017-08-19T05:44:12.602Z,24.3
2017-08-19T05:45:14.273Z,23.0
2017-08-19T05:46:15.967Z,24.1
2017-08-19T05:47:17.635Z,25.3
2017-08-19T05:48:19.296Z,24.7
2017-08-19T05:49:20.965Z,21.7
2017-08-19T05:50:22.630Z,23.1
2017-08-19T05:51:24.294Z,22.2
2017-08-19T05:52:25.958Z,26.6
2017-08-19T05:53:27.613Z,20.9
2017-08-19T05:54:29.294Z,22.2
2017-08-19T05:55:30.960Z,21.6
2017-08-19T05:56:32.627Z,19.1
2017-08-19T05:57:34.285Z,24.2
2017-08-19T05:58:35.941Z,21.4
2017-08-19T05:59:37.609Z,23.8
2017-08-19T06:00:39.276Z,25.8
2017-08-19T06:01:40.947Z,25.8
2017-08-19T06:02:42.610Z,26.8
2017-08-19T06:03:44.269Z,31.1
2017-08-19T06:04:45.931Z,24.3
2017-08-19T06:05:47.595Z,23.1
2017-08-19T06:06:49.268Z,24.4
2017-08-19T06:07:50.939Z,27.6
2017-08-19T06:08:52.603Z,24.4
2017-08-19T06:09:54.284Z,20.9
2017-08-19T06:10:55.923Z,25.1
2017-08-19T06:11:57.595Z,25.3
2017-08-19T06:12:59.259Z,26.0
2017-08-19T06:14:00.918Z,25.7
2017-08-19T06:15:02.588Z,25.0
2017-08-19T06:16:04.256Z,26.3
2017-08-19T06:17:05.926Z,30.1
2017-08-19T06:18:07.586Z,27.7
2017-08-19T06:19:09.254Z,29.9
2017-08-19T06:20:10.921Z,26.2
2017-08-19T06:21:12.589Z,22.1
2017-08-19T06:22:14.286Z,39.3
2017-08-19T06:23:15.944Z,36.3
2017-08-19T06:24:17.610Z,33.1
2017-08-19T06:25:19.279Z,37.9
2017-08-19T06:26:20.947Z,30.2
2017-08-19T06:27:22.611Z,33.3
2017-08-19T06:28:24.274Z,28.1
2017-08-19T06:29:25.932Z,30.4
2017-08-19T06:30:27.595Z,27.9
2017-08-19T06:31:29.267Z,28.4
2017-08-19T06:32:30.934Z,38.0
2017-08-19T06:33:32.605Z,39.0
2017-08-19T06:34:34.272Z,40.9
2017-08-19T06:35:35.938Z,35.1
2017-08-19T06:36:37.603Z,31.1
2017-08-19T06:37:39.273Z,46.0
2017-08-19T06:38:40.933Z,41.4
2017-08-19T06:39:42.598Z,44.9
2017-08-19T06:40:44.265Z,37.0
2017-08-19T06:41:45.926Z,41.0
2017-08-19T06:42:47.608Z,32.6
2017-08-19T06:43:49.273Z,36.2
2017-08-19T06:44:50.936Z,29.9
2017-08-19T06:45:52.607Z,42.9
2017-08-19T06:46:54.274Z,38.2
2017-08-19T06:47:55.943Z,41.8
2017-08-19T06:48:57.675Z,38.2
2017-08-19T06:49:59.339Z,43.2
2017-08-19T06:51:00.999Z,40.6
2017-08-19T06:52:02.681Z,43.4
2017-08-19T06:53:04.351Z,48.7
2017-08-19T06:54:06.022Z,50.9
2017-08-19T06:55:07.681Z,49.5
2017-08-19T06:56:09.349Z,49.6
2017-08-19T06:57:11.020Z,50.1
2017-08-19T06:58:12.688Z,54.7
2017-08-19T06:59:14.348Z,53.0
2017-08-19T07:00:16.009Z,54.1
2017-08-19T07:01:17.678Z,53.1
2017-08-19T07:02:19.345Z,55.4
2017-08-19T07:03:21.003Z,54.8
2017-08-19T07:04:22.669Z,52.8
2017-08-19T07:05:24.345Z,56.5
2017-08-19T07:06:26.056Z,56.3
2017-08-19T07:07:27.731Z,60.7
2017-08-19T07:08:29.416Z,61.4
2017-08-19T07:09:31.082Z,59.9
2017-08-19T07:10:32.749Z,58.8
2017-08-19T07:11:34.408Z,61.4
2017-08-19T07:12:36.138Z,62.5
2017-08-19T07:13:37.869Z,66.6
2017-08-19T07:14:39.553Z,74.9
2017-08-19T07:15:41.206Z,75.9
2017-08-19T07:16:42.877Z,74.7
2017-08-19T07:17:45.456Z,72.2
2017-08-19T07:18:47.142Z,70.9
2017-08-19T07:19:48.815Z,71.6
2017-08-19T07:20:50.541Z,68.9
2017-08-19T07:21:52.209Z,69.5
2017-08-19T07:22:53.877Z,67.9
2017-08-19T07:23:55.548Z,69.5
2017-08-19T07:24:57.221Z,72.0
2017-08-19T07:25:58.893Z,69.9
2017-08-19T07:27:00.560Z,70.7
2017-08-19T07:28:02.260Z,72.4
2017-08-19T07:29:03.901Z,76.1
2017-08-19T07:30:05.579Z,75.3
2017-08-19T07:31:07.250Z,74.8
2017-08-19T07:32:08.920Z,78.5
2017-08-19T07:33:10.596Z,75.9
2017-08-19T07:34:12.275Z,77.7
2017-08-19T07:35:13.939Z,74.9
2017-08-19T07:36:15.615Z,76.5
2017-08-19T07:37:17.274Z,75.2
2017-08-19T07:38:18.962Z,77.6
2017-08-19T07:39:20.636Z,76.9
2017-08-19T07:40:22.336Z,73.6
2017-08-19T07:41:24.007Z,77.6
2017-08-19T07:42:25.671Z,72.5
2017-08-19T07:43:27.382Z,75.0
2017-08-19T07:44:29.052Z,79.2
2017-08-19T07:45:30.721Z,86.3
2017-08-19T07:46:32.392Z,83.2
2017-08-19T07:47:34.060Z,84.3
2017-08-19T07:48:36.346Z,81.7
2017-08-19T07:49:38.022Z,78.9
2017-08-19T07:50:39.693Z,77.4
2017-08-19T07:51:41.369Z,81.6
2017-08-19T07:52:43.040Z,85.6
2017-08-19T07:53:44.709Z,86.3
2017-08-19T07:54:47.694Z,86.3
2017-08-19T07:55:49.373Z,90.4
2017-08-19T07:56:51.054Z,87.5
2017-08-19T07:57:52.741Z,88.1
2017-08-19T07:58:54.411Z,90.0
2017-08-19T07:59:56.094Z,88.4
2017-08-19T08:00:57.771Z,89.3
2017-08-19T08:02:00.449Z,88.7
2017-08-19T08:03:02.127Z,91.2
2017-08-19T08:04:03.808Z,88.7
2017-08-19T08:05:06.489Z,90.1
2017-08-19T08:06:08.163Z,89.3
2017-08-19T08:07:09.850Z,89.2
2017-08-19T08:08:11.533Z,89.1
2017-08-19T08:09:13.201Z,88.6
2017-08-19T08:10:14.879Z,89.7
2017-08-19T08:11:16.564Z,87.4
2017-08-19T08:12:18.234Z,88.0
2017-08-19T08:13:19.908Z,87.4
2017-08-19T08:14:21.584Z,85.8
2017-08-19T08:15:23.257Z,86.7
2017-08-19T08:16:24.930Z,87.1
2017-08-19T08:17:26.603Z,85.7
2017-08-19T08:18:28.272Z,84.6
2017-08-19T08:19:29.940Z,83.6
2017-08-19T08:20:31.606Z,84.1
2017-08-19T08:21:33.280Z,83.4
2017-08-19T08:22:34.955Z,83.6
2017-08-19T08:23:36.624Z,83.9
2017-08-19T08:24:38.323Z,84.4
2017-08-19T08:25:40.012Z,85.3
2017-08-19T08:26:41.690Z,84.2
2017-08-19T08:27:43.362Z,86.4
2017-08-19T08:28:45.032Z,87.9
2017-08-19T08:29:46.697Z,87.5
2017-08-19T08:30:48.373Z,89.2
2017-08-19T08:31:50.044Z,88.0
2017-08-19T08:32:51.736Z,88.5
2017-08-19T08:33:53.407Z,86.1
2017-08-19T08:34:55.073Z,87.2
2017-08-19T08:35:56.751Z,85.6
2017-08-19T08:36:58.418Z,87.5
2017-08-19T08:38:00.097Z,86.0
2017-08-19T08:39:01.770Z,85.1
2017-08-19T08:40:03.448Z,86.9
2017-08-19T08:41:05.118Z,88.2
2017-08-19T08:42:06.787Z,88.2
2017-08-19T08:43:08.478Z,86.9
2017-08-19T08:44:10.161Z,86.2
2017-08-19T08:45:11.830Z,87.2
2017-08-19T08:46:13.496Z,86.5
2017-08-19T08:47:15.169Z,85.6
2017-08-19T08:48:16.843Z,86.3
2017-08-19T08:49:18.518Z,87.0
2017-08-19T08:50:20.188Z,87.9
2017-08-19T08:51:21.892Z,88.2
2017-08-19T08:52:23.557Z,87.5
2017-08-19T08:53:25.226Z,88.3
2017-08-19T08:54:26.899Z,88.9
2017-08-19T08:55:28.583Z,87.8
2017-08-19T08:56:30.248Z,89.7
2017-08-19T08:57:32.000Z,87.8
2017-08-19T08:58:33.668Z,88.7
2017-08-19T08:59:35.339Z,89.2
2017-08-19T09:00:37.019Z,88.9
2017-08-19T09:01:38.702Z,89.0
2017-08-19T09:02:40.359Z,88.4
2017-08-19T09:03:42.040Z,88.6
2017-08-19T09:04:43.723Z,89.2
2017-08-19T09:05:45.386Z,88.5
2017-08-19T09:06:47.060Z,89.0
2017-08-19T09:07:48.731Z,89.1
2017-08-19T09:08:50.435Z,87.6
2017-08-19T09:09:52.109Z,87.8
2017-08-19T09:10:53.790Z,86.8
2017-08-19T09:11:55.520Z,87.3
2017-08-19T09:12:57.198Z,86.6
2017-08-19T09:13:58.875Z,87.2
2017-08-19T09:15:00.546Z,89.3
2017-08-19T09:16:02.219Z,89.1
2017-08-19T09:17:03.889Z,89.7
2017-08-19T09:18:05.556Z,88.6
2017-08-19T09:19:07.226Z,89.7
2017-08-19T09:20:08.899Z,89.0
2017-08-19T09:21:10.627Z,89.7
2017-08-19T09:22:12.296Z,89.7
2017-08-19T09:23:13.976Z,89.0
2017-08-19T09:24:15.734Z,90.3
2017-08-19T09:25:17.393Z,90.3
2017-08-19T10:43:49.146Z,89.5
2017-08-19T10:44:50.812Z,89.4
2017-08-19T10:45:52.476Z,90.0
2017-08-19T10:46:54.146Z,89.8
2017-08-19T10:47:55.819Z,90.6
2017-08-19T10:48:57.497Z,91.2
2017-08-19T10:49:59.183Z,90.5
2017-08-19T10:51:00.852Z,90.9
2017-08-19T10:52:02.659Z,90.8
2017-08-19T10:53:04.334Z,90.9
2017-08-19T10:54:06.081Z,91.3
2017-08-19T10:55:07.734Z,91.0
2017-08-19T10:56:09.412Z,90.8
2017-08-19T10:57:11.086Z,90.7
2017-08-19T10:58:12.770Z,90.8
2017-08-19T10:59:14.425Z,91.2
2017-08-19T11:00:16.094Z,90.1
2017-08-19T11:01:17.763Z,90.8
2017-08-19T11:02:19.435Z,90.4
2017-08-19T11:03:21.170Z,90.8
2017-08-19T11:04:22.894Z,90.7
2017-08-19T11:05:24.583Z,90.9
2017-08-19T11:06:26.251Z,91.1
2017-08-19T11:07:27.926Z,90.6
2017-08-19T11:08:29.623Z,90.2
2017-08-19T11:09:31.292Z,90.1
2017-08-19T11:10:32.960Z,88.8
2017-08-19T11:11:34.622Z,88.8
2017-08-19T11:12:36.301Z,87.7
2017-08-19T11:13:37.966Z,87.0
2017-08-19T11:14:39.750Z,88.0
2017-08-19T11:15:41.427Z,86.4
2017-08-19T11:16:43.100Z,86.2
2017-08-19T11:17:44.774Z,86.7
2017-08-19T11:18:46.444Z,86.9
2017-08-19T11:19:48.125Z,86.8
2017-08-19T11:20:49.830Z,87.4
2017-08-19T11:21:51.499Z,87.5
2017-08-19T11:22:53.171Z,87.2
2017-08-19T11:23:54.841Z,86.9
2017-08-19T11:24:56.506Z,87.4
2017-08-19T11:25:58.257Z,87.3
2017-08-19T11:26:59.880Z,88.1
2017-08-19T11:28:01.543Z,87.2
2017-08-19T11:29:03.207Z,87.5
2017-08-19T11:30:04.874Z,85.9
2017-08-19T11:31:06.546Z,83.9
2017-08-19T11:32:09.168Z,83.2
2017-08-19T11:33:13.246Z,81.5
2017-08-19T11:34:14.511Z,81.0
2017-08-19T11:35:16.195Z,81.7
2017-08-19T11:36:17.963Z,81.9
2017-08-19T11:37:19.649Z,82.9
2017-08-19T11:38:21.478Z,82.6
2017-08-19T11:39:23.148Z,83.6
2017-08-19T11:40:24.820Z,84.9
2017-08-19T11:41:26.533Z,86.1
2017-08-19T11:42:28.200Z,87.2
2017-08-19T11:43:29.865Z,86.9
2017-08-19T11:44:31.547Z,87.0
2017-08-19T11:45:33.212Z,87.5
2017-08-19T11:46:34.904Z,89.1
2017-08-19T11:47:36.766Z,89.0
2017-08-19T11:48:38.467Z,88.6
2017-08-19T11:49:40.153Z,88.9
2017-08-19T11:50:41.828Z,89.9
2017-08-19T11:51:43.506Z,89.3
2017-08-19T11:52:45.169Z,86.6
2017-08-19T11:53:46.844Z,87.6
2017-08-19T11:54:48.544Z,86.3
2017-08-19T11:55:50.220Z,85.3
2017-08-19T11:56:51.887Z,86.2
2017-08-19T11:57:53.576Z,86.0
2017-08-19T11:58:55.238Z,86.2
2017-08-19T11:59:56.915Z,87.7
2017-08-19T12:00:58.594Z,88.8
2017-08-19T12:02:00.263Z,89.8
2017-08-19T12:03:01.936Z,89.8
2017-08-19T12:04:03.614Z,90.9
2017-08-19T12:05:06.414Z,90.6
2017-08-19T12:06:08.083Z,90.6
2017-08-19T12:07:09.763Z,91.1
2017-08-19T12:08:11.435Z,91.3
2017-08-19T12:09:17.730Z,91.0
2017-08-19T12:10:18.850Z,90.4
2017-08-19T12:11:20.512Z,89.7
2017-08-19T12:12:22.379Z,90.3
2017-08-19T12:13:24.040Z,89.4
2017-08-19T12:14:25.716Z,86.8
2017-08-19T12:15:27.453Z,85.7
2017-08-19T12:16:29.134Z,83.4
2017-08-19T12:17:30.892Z,81.1
2017-08-19T12:18:32.551Z,77.7
2017-08-19T12:19:34.223Z,78.9
2017-08-19T12:20:36.145Z,75.5
2017-08-19T12:21:37.813Z,80.3
2017-08-19T12:22:39.486Z,80.4
2017-08-19T12:23:41.915Z,79.8
2017-08-19T12:24:43.599Z,84.8
2017-08-19T12:25:45.263Z,82.5
2017-08-19T12:26:46.960Z,87.2
2017-08-19T12:27:48.613Z,86.7
2017-08-19T12:28:50.291Z,87.3
2017-08-19T12:29:51.970Z,87.1
2017-08-19T12:30:53.680Z,87.2
2017-08-19T12:31:55.401Z,87.7
2017-08-19T12:32:57.099Z,86.5
2017-08-19T12:33:59.702Z,87.0
2017-08-19T12:35:01.381Z,87.4
2017-08-19T12:36:03.050Z,87.7
2017-08-19T12:37:04.729Z,88.1
2017-08-19T12:38:06.397Z,87.9
2017-08-19T12:39:08.066Z,87.7
2017-08-19T12:40:09.732Z,87.4
2017-08-19T19:21:16.088Z,18.2
2017-08-19T19:22:17.737Z,18.5
2017-08-19T19:23:19.723Z,18.1
2017-08-19T19:24:21.786Z,17.7
2017-08-19T19:25:26.425Z,17.7
2017-08-19T19:26:32.778Z,17.3
2017-08-19T20:43:05.581Z,15.9
2017-08-19T20:44:07.581Z,16.2
2017-08-19T20:45:09.255Z,15.6
2017-08-19T20:46:11.189Z,15.4
2017-08-19T20:47:13.156Z,15.4
2017-08-19T20:48:14.819Z,15.3
2017-08-19T20:49:18.349Z,15.5
2017-08-19T20:50:19.861Z,15.4
2017-08-19T20:51:21.598Z,15.6
2017-08-19T20:52:23.266Z,15.8
2017-08-19T20:53:25.130Z,16.0
2017-08-19T20:54:29.948Z,15.4
2017-08-19T20:55:32.354Z,15.4
2017-08-19T20:56:34.046Z,15.3
2017-08-19T20:57:37.617Z,15.7
2017-08-19T20:58:39.345Z,16.8
2017-08-19T20:59:41.083Z,17.1
2017-08-19T23:15:34.663Z,29.1
2017-08-19T23:16:36.315Z,29.2
2017-08-19T23:17:37.980Z,29.2
2017-08-19T23:18:39.657Z,29.2
2017-08-19T23:19:41.327Z,29.1
2017-08-19T23:20:42.984Z,29.2
2017-08-19T23:21:44.646Z,29.2
2017-08-19T23:22:46.305Z,29.2
2017-08-19T23:23:48.024Z,29.2
2017-08-19T23:24:49.698Z,29.1
2017-08-19T23:25:51.357Z,29.2
2017-08-19T23:26:53.014Z,29.2
2017-08-19T23:27:54.671Z,29.2
2017-08-19T23:28:56.325Z,29.2
2017-08-19T23:29:57.984Z,29.2
2017-08-19T23:30:59.640Z,29.1
2017-08-19T23:32:01.294Z,29.2
2017-08-19T23:33:02.953Z,29.0
2017-08-19T23:34:04.612Z,29.1
2017-08-19T23:35:06.274Z,28.9
2017-08-19T23:36:07.938Z,29.1
2017-08-19T23:37:09.590Z,28.6
2017-08-19T23:38:11.252Z,28.9
2017-08-19T23:39:12.908Z,28.9
2017-08-19T23:40:14.574Z,29.0
2017-08-19T23:41:16.225Z,28.6
2017-08-19T23:42:17.891Z,28.6
2017-08-19T23:43:19.558Z,28.5
2017-08-19T23:44:21.205Z,28.8
2017-08-19T23:45:22.867Z,28.6
2017-08-19T23:46:24.581Z,28.5
2017-08-19T23:47:26.239Z,28.4
2017-08-19T23:48:27.910Z,28.5
2017-08-19T23:49:29.570Z,28.7
2017-08-19T23:50:31.245Z,28.7
2017-08-19T23:51:32.887Z,28.3
2017-08-19T23:52:34.551Z,28.3
2017-08-19T23:53:36.204Z,28.0
2017-08-19T23:54:37.856Z,28.2
2017-08-19T23:55:39.522Z,28.2
2017-08-19T23:56:41.180Z,28.0
2017-08-19T23:57:42.837Z,28.1
2017-08-19T23:58:44.500Z,28.2
2017-08-19T23:59:46.168Z,28.2
